createdAt,value
2018-09-27T00:02:20.780Z,72.90
2018-09-27T00:04:49.015Z,73.00
2018-09-27T00:07:17.307Z,73.00
2018-09-27T00:09:45.613Z,73.10
2018-09-27T00:12:13.925Z,73.10
2018-09-27T00:14:42.202Z,73.10
2018-09-27T00:17:10.550Z,73.20
2018-09-27T00:19:38.917Z,73.30
2018-09-27T00:22:07.171Z,73.30
2018-09-27T00:24:35.416Z,73.20
2018-09-27T00:27:03.662Z,73.30
2018-09-27T00:29:31.945Z,73.40
2018-09-27T00:32:00.570Z,73.40
2018-09-27T00:34:28.893Z,73.60
2018-09-27T00:36:57.177Z,73.60
2018-09-27T00:39:25.554Z,73.40
2018-09-27T00:41:53.800Z,73.40
2018-09-27T00:44:22.090Z,73.50
2018-09-27T00:46:50.409Z,73.50
2018-09-27T00:49:20.159Z,73.40
2018-09-27T00:51:48.826Z,73.50
2018-09-27T00:54:17.211Z,73.70
2018-09-27T00:56:45.639Z,73.50
2018-09-27T00:59:13.920Z,73.70
2018-09-27T01:01:42.249Z,73.70
2018-09-27T01:04:10.628Z,73.60
2018-09-27T01:06:38.933Z,73.50
2018-09-27T01:09:10.157Z,73.60
2018-09-27T01:11:38.705Z,73.60
2018-09-27T01:14:09.900Z,73.40
2018-09-27T01:16:38.178Z,73.50
2018-09-27T01:19:06.482Z,74.30
2018-09-27T01:21:34.807Z,73.90
2018-09-27T01:24:03.161Z,74.00
2018-09-27T01:26:31.508Z,73.90
2018-09-27T01:28:59.848Z,73.90
2018-09-27T01:31:28.169Z,74.10
2018-09-27T01:33:56.449Z,74.00
2018-09-27T01:36:24.931Z,73.90
2018-09-27T01:38:53.265Z,73.90
2018-09-27T01:41:21.537Z,73.70
2018-09-27T01:43:49.862Z,74.00
2018-09-27T01:46:18.174Z,74.00
2018-09-27T01:48:46.452Z,74.00
2018-09-27T01:51:16.268Z,74.20
2018-09-27T01:53:45.635Z,74.50
2018-09-27T01:56:14.014Z,74.40
2018-09-27T01:58:42.316Z,74.20
2018-09-27T02:01:10.632Z,74.40
2018-09-27T02:03:38.907Z,74.20
2018-09-27T02:06:07.381Z,74.40
2018-09-27T02:08:35.685Z,74.30
2018-09-27T02:11:04.023Z,74.40
2018-09-27T02:13:32.323Z,74.50
2018-09-27T02:16:00.700Z,74.40
2018-09-27T02:18:28.862Z,74.40
2018-09-27T02:20:57.089Z,74.50
2018-09-27T02:23:25.535Z,74.70
2018-09-27T02:25:53.804Z,74.60
2018-09-27T02:28:22.159Z,74.00
2018-09-27T02:30:50.441Z,74.70
2018-09-27T02:33:18.716Z,74.90
2018-09-27T02:35:47.006Z,74.90
2018-09-27T02:38:15.289Z,74.90
2018-09-27T02:40:43.631Z,74.90
2018-09-27T02:43:11.847Z,74.90
2018-09-27T02:45:40.031Z,74.90
2018-09-27T02:48:08.289Z,75.00
2018-09-27T02:50:36.555Z,74.90
2018-09-27T02:53:05.984Z,74.80
2018-09-27T02:55:34.157Z,74.80
2018-09-27T02:58:02.388Z,74.80
2018-09-27T03:00:30.577Z,74.90
2018-09-27T03:02:58.924Z,74.80
2018-09-27T03:05:27.234Z,74.80
2018-09-27T03:07:55.584Z,75.60
2018-09-27T03:10:23.909Z,74.90
2018-09-27T03:12:52.267Z,74.90
2018-09-27T03:15:20.579Z,74.90
2018-09-27T03:17:48.877Z,74.90
2018-09-27T03:20:17.237Z,74.80
2018-09-27T03:22:45.662Z,75.00
2018-09-27T03:25:13.837Z,74.90
2018-09-27T03:27:42.082Z,74.90
2018-09-27T03:30:15.347Z,75.00
2018-09-27T03:32:43.654Z,75.10
2018-09-27T03:35:11.891Z,75.20
2018-09-27T03:37:40.092Z,75.10
2018-09-27T03:40:08.435Z,75.60
2018-09-27T03:42:36.729Z,75.20
2018-09-27T03:45:05.109Z,75.20
2018-09-27T03:47:33.401Z,75.20
2018-09-27T03:50:01.733Z,75.30
2018-09-27T03:52:30.057Z,75.40
2018-09-27T03:54:58.488Z,75.40
2018-09-27T03:57:29.796Z,75.40
2018-09-27T03:59:58.111Z,75.40
2018-09-27T04:02:26.379Z,75.30
2018-09-27T04:04:54.657Z,75.50
2018-09-27T04:07:23.048Z,76.20
2018-09-27T04:09:51.311Z,75.50
2018-09-27T04:12:19.546Z,75.60
2018-09-27T04:14:47.884Z,75.70
2018-09-27T04:17:16.178Z,75.70
2018-09-27T04:19:44.527Z,75.60
2018-09-27T04:22:12.738Z,75.60
2018-09-27T04:24:40.978Z,75.50
2018-09-27T04:27:09.310Z,75.60
2018-09-27T04:29:37.682Z,75.80
2018-09-27T04:32:10.862Z,76.50
2018-09-27T04:34:40.814Z,75.60
2018-09-27T04:37:09.359Z,75.70
2018-09-27T04:39:37.669Z,75.70
2018-09-27T04:42:06.151Z,75.70
2018-09-27T04:44:34.412Z,75.70
2018-09-27T04:47:02.621Z,75.70
2018-09-27T04:49:31.447Z,75.80
2018-09-27T04:51:59.661Z,75.70
2018-09-27T04:54:27.870Z,75.70
2018-09-27T04:56:56.252Z,75.80
2018-09-27T04:59:24.552Z,75.80
2018-09-27T05:01:52.762Z,76.00
2018-09-27T05:04:21.088Z,76.10
2018-09-27T05:06:49.363Z,76.00
2018-09-27T05:09:17.547Z,75.80
2018-09-27T05:11:46.178Z,75.80
2018-09-27T05:14:14.407Z,76.00
2018-09-27T05:16:42.924Z,76.90
2018-09-27T05:19:11.724Z,76.20
2018-09-27T05:21:50.021Z,76.20
2018-09-27T05:24:18.572Z,76.20
2018-09-27T05:26:47.121Z,76.20
2018-09-27T05:29:15.710Z,76.10
2018-09-27T05:31:44.328Z,76.10
2018-09-27T05:34:13.142Z,76.20
2018-09-27T05:36:41.768Z,76.30
2018-09-27T05:39:11.013Z,76.20
2018-09-27T05:41:39.557Z,76.20
2018-09-27T05:44:08.700Z,76.30
2018-09-27T05:46:37.106Z,76.30
2018-09-27T05:49:05.687Z,76.30
2018-09-27T05:51:34.164Z,76.30
2018-09-27T05:54:02.536Z,76.30
2018-09-27T05:56:30.944Z,76.20
2018-09-27T05:58:59.219Z,76.30
2018-09-27T06:01:31.153Z,76.20
2018-09-27T06:03:59.562Z,76.20
2018-09-27T06:06:27.941Z,76.20
2018-09-27T06:08:56.262Z,76.20
2018-09-27T06:11:24.626Z,76.20
2018-09-27T06:13:52.965Z,76.30
2018-09-27T06:16:21.318Z,76.10
2018-09-27T06:18:49.685Z,76.20
2018-09-27T06:21:23.132Z,76.20
2018-09-27T06:23:51.663Z,76.20
2018-09-27T06:26:20.274Z,76.10
2018-09-27T06:28:48.561Z,76.30
2018-09-27T06:31:16.854Z,76.30
2018-09-27T06:33:45.438Z,76.20
2018-09-27T06:36:13.777Z,76.10
2018-09-27T06:38:42.452Z,76.10
2018-09-27T06:41:10.724Z,76.00
2018-09-27T06:43:38.970Z,76.00
2018-09-27T06:46:07.712Z,75.80
2018-09-27T06:48:36.142Z,75.80
2018-09-27T06:51:05.781Z,75.70
2018-09-27T06:53:34.206Z,75.60
2018-09-27T06:56:02.821Z,75.50
2018-09-27T06:58:31.057Z,75.40
2018-09-27T07:01:09.406Z,75.30
2018-09-27T07:03:37.825Z,75.40
2018-09-27T07:06:06.427Z,75.10
2018-09-27T07:08:34.901Z,75.00
2018-09-27T07:11:03.248Z,74.90
2018-09-27T07:13:32.729Z,74.70
2018-09-27T07:16:01.247Z,74.70
2018-09-27T07:18:29.775Z,74.60
2018-09-27T07:20:58.480Z,74.60
2018-09-27T07:23:26.814Z,74.60
2018-09-27T07:25:55.088Z,74.60
2018-09-27T07:28:23.367Z,74.60
2018-09-27T07:30:51.638Z,74.50
2018-09-27T07:33:19.890Z,74.40
2018-09-27T07:35:48.324Z,74.40
2018-09-27T07:38:16.546Z,74.30
2018-09-27T07:40:45.005Z,74.30
2018-09-27T07:43:18.428Z,74.30
2018-09-27T07:45:46.749Z,74.20
2018-09-27T07:48:15.068Z,74.20
2018-09-27T07:50:43.497Z,74.00
2018-09-27T07:53:11.821Z,74.00
2018-09-27T07:55:40.137Z,73.90
2018-09-27T07:58:08.961Z,72.90
2018-09-27T08:00:37.470Z,72.80
2018-09-27T08:03:06.090Z,72.80
2018-09-27T08:05:34.787Z,72.60
2018-09-27T08:08:04.154Z,72.60
2018-09-27T08:10:32.564Z,72.60
2018-09-27T08:13:00.819Z,72.60
2018-09-27T08:15:29.146Z,72.60
2018-09-27T08:17:57.461Z,72.60
2018-09-27T08:20:25.844Z,72.60
2018-09-27T08:22:57.239Z,72.70
2018-09-27T08:25:25.558Z,72.60
2018-09-27T08:27:53.834Z,72.50
2018-09-27T08:30:24.747Z,72.50
2018-09-27T08:32:52.934Z,72.60
2018-09-27T08:35:21.235Z,72.50
2018-09-27T08:37:49.589Z,72.60
2018-09-27T08:40:17.918Z,72.50
2018-09-27T08:42:46.166Z,72.60
2018-09-27T08:45:14.803Z,72.40
2018-09-27T08:47:43.113Z,72.30
2018-09-27T08:50:11.731Z,72.10
2018-09-27T08:52:40.061Z,71.90
2018-09-27T08:55:08.401Z,71.80
2018-09-27T08:57:36.674Z,71.80
2018-09-27T09:00:05.470Z,71.60
2018-09-27T09:02:33.703Z,71.70
2018-09-27T09:05:01.975Z,71.90
2018-09-27T09:07:31.318Z,71.90
2018-09-27T09:09:59.481Z,72.00
2018-09-27T09:12:27.815Z,72.10
2018-09-27T09:14:56.076Z,72.00
2018-09-27T09:17:24.313Z,71.80
2018-09-27T09:19:52.627Z,71.70
2018-09-27T09:22:20.925Z,71.50
2018-09-27T09:24:51.218Z,71.70
2018-09-27T09:27:19.681Z,71.40
2018-09-27T09:29:48.390Z,71.40
2018-09-27T09:32:16.791Z,71.30
2018-09-27T09:34:45.259Z,71.30
2018-09-27T09:37:13.682Z,71.20
2018-09-27T09:39:42.265Z,71.00
2018-09-27T09:42:10.814Z,70.80
2018-09-27T09:44:40.324Z,70.80
2018-09-27T09:47:08.758Z,70.60
2018-09-27T09:55:20.123Z,70.30
2018-09-27T10:00:45.206Z,70.10
2018-09-27T10:03:13.750Z,69.90
2018-09-27T10:05:43.107Z,70.00
2018-09-27T10:08:12.298Z,69.90
2018-09-27T10:10:41.617Z,69.90
2018-09-27T10:13:10.283Z,69.80
2018-09-27T10:15:38.971Z,69.70
2018-09-27T10:18:07.968Z,69.50
2018-09-27T10:23:29.076Z,69.20
2018-09-27T10:25:57.544Z,69.10
2018-09-27T10:28:25.952Z,69.00
2018-09-27T10:30:54.792Z,68.70
2018-09-27T10:33:23.034Z,68.70
2018-09-27T10:35:51.423Z,68.40
2018-09-27T10:43:05.171Z,68.20
2018-09-27T10:45:33.521Z,67.80
2018-09-27T10:48:01.846Z,68.30
2018-09-27T10:50:33.906Z,67.40
2018-09-27T10:53:05.302Z,67.20
2018-09-27T10:55:33.564Z,67.10
2018-09-27T10:58:05.729Z,67.10
2018-09-27T11:00:34.008Z,67.10
2018-09-27T11:03:02.280Z,66.90
2018-09-27T11:05:30.724Z,66.80
2018-09-27T11:07:59.089Z,66.60
2018-09-27T11:10:27.530Z,66.50
2018-09-27T11:12:55.891Z,66.20
2018-09-27T11:15:24.284Z,66.00
2018-09-27T11:17:52.515Z,65.90
2018-09-27T11:20:20.852Z,65.80
2018-09-27T11:22:52.339Z,65.70
2018-09-27T11:25:22.066Z,65.60
2018-09-27T11:27:50.554Z,65.60
2018-09-27T11:30:24.224Z,65.70
2018-09-27T11:32:52.412Z,65.30
2018-09-27T11:35:20.912Z,65.00
2018-09-27T11:37:55.183Z,64.70
2018-09-27T11:40:23.419Z,64.80
2018-09-27T11:43:04.891Z,64.70
2018-09-27T11:45:33.299Z,64.30
2018-09-27T11:48:02.746Z,64.20
2018-09-27T11:50:31.282Z,64.10
2018-09-27T11:52:59.769Z,63.90
2018-09-27T11:55:28.105Z,63.70
2018-09-27T11:57:56.476Z,64.30
2018-09-27T12:00:24.865Z,63.40
2018-09-27T12:02:53.242Z,63.10
2018-09-27T12:05:21.589Z,63.00
2018-09-27T12:07:54.841Z,62.80
2018-09-27T12:10:23.296Z,62.90
2018-09-27T12:12:52.020Z,62.90
2018-09-27T12:15:20.469Z,62.70
2018-09-27T12:17:48.824Z,62.70
2018-09-27T12:20:17.213Z,62.60
2018-09-27T12:22:45.581Z,62.60
2018-09-27T12:25:13.987Z,62.50
2018-09-27T12:27:42.483Z,62.00
2018-09-27T12:30:10.838Z,62.10
2018-09-27T12:32:39.283Z,62.20
2018-09-27T12:35:07.640Z,62.20
2018-09-27T12:37:36.384Z,61.90
2018-09-27T12:40:04.780Z,62.00
2018-09-27T12:42:33.178Z,61.70
2018-09-27T12:45:07.691Z,61.70
2018-09-27T12:47:35.937Z,61.60
2018-09-27T12:50:04.302Z,61.50
2018-09-27T12:52:32.844Z,61.20
2018-09-27T12:55:01.099Z,60.90
2018-09-27T12:57:29.461Z,61.20
2018-09-27T12:59:57.879Z,61.10
2018-09-27T13:02:26.202Z,60.90
2018-09-27T13:04:54.547Z,60.80
2018-09-27T13:07:22.903Z,60.80
2018-09-27T13:09:51.372Z,60.60
2018-09-27T13:12:19.675Z,60.60
2018-09-27T13:14:48.368Z,60.20
2018-09-27T13:17:16.665Z,59.90
2018-09-27T13:19:45.178Z,59.70
2018-09-27T13:22:13.521Z,59.70
2018-09-27T13:24:41.939Z,59.30
2018-09-27T13:27:11.344Z,59.30
2018-09-27T13:29:39.582Z,59.20
2018-09-27T13:32:08.463Z,59.10
2018-09-27T13:34:36.618Z,58.90
2018-09-27T13:37:05.342Z,58.90
2018-09-27T13:39:33.620Z,58.80
2018-09-27T13:42:01.976Z,58.50
2018-09-27T13:44:30.240Z,58.50
2018-09-27T13:46:58.575Z,58.40
2018-09-27T13:49:26.942Z,58.30
2018-09-27T13:51:56.605Z,58.20
2018-09-27T13:54:25.157Z,57.80
2018-09-27T13:56:53.559Z,57.80
2018-09-27T13:59:23.122Z,57.80
2018-09-27T14:01:51.562Z,57.30
2018-09-27T14:04:19.958Z,57.30
2018-09-27T14:06:50.178Z,57.40
2018-09-27T14:09:18.595Z,57.40
2018-09-27T14:11:47.351Z,57.10
2018-09-27T14:14:15.835Z,57.10
2018-09-27T14:16:44.540Z,57.10
2018-09-27T14:19:19.356Z,56.90
2018-09-27T14:21:48.078Z,56.80
2018-09-27T14:24:16.623Z,56.60
2018-09-27T14:26:45.137Z,56.40
2018-09-27T14:29:13.799Z,56.40
2018-09-27T14:31:42.418Z,56.60
2018-09-27T14:34:11.039Z,56.40
2018-09-27T14:36:39.722Z,56.10
2018-09-27T14:39:09.474Z,56.00
2018-09-27T14:41:38.010Z,56.00
2018-09-27T14:44:06.711Z,56.00
2018-09-27T14:46:35.097Z,55.80
2018-09-27T14:49:03.770Z,55.60
2018-09-27T14:51:32.566Z,55.00
2018-09-27T14:54:00.920Z,55.40
2018-09-27T14:56:29.498Z,53.70
2018-09-27T14:58:57.843Z,54.90
2018-09-27T15:01:26.257Z,55.10
2018-09-27T15:03:54.669Z,55.00
2018-09-27T15:06:23.174Z,55.50
2018-09-27T15:08:52.065Z,55.70
2018-09-27T15:11:20.657Z,56.00
2018-09-27T15:13:48.934Z,56.20
2018-09-27T15:16:17.253Z,56.20
2018-09-27T15:18:47.644Z,56.30
2018-09-27T15:21:16.058Z,56.40
2018-09-27T15:23:44.846Z,56.30
2018-09-27T15:29:08.338Z,56.50
2018-09-27T15:31:37.479Z,56.60
2018-09-27T15:34:05.869Z,56.80
2018-09-27T15:42:26.859Z,57.30
2018-09-27T15:53:46.168Z,57.60
2018-09-27T15:56:14.694Z,57.40
2018-09-27T15:58:43.303Z,57.60
2018-09-27T16:01:11.836Z,57.70
2018-09-27T16:03:40.509Z,57.80
2018-09-27T16:06:08.989Z,57.90
2018-09-27T16:08:37.431Z,58.10
2018-09-27T16:11:06.013Z,58.00
2018-09-27T16:13:34.550Z,58.10
2018-09-27T16:16:03.101Z,58.40
2018-09-27T16:18:31.458Z,58.40
2018-09-27T16:20:59.790Z,58.40
2018-09-27T16:23:28.255Z,58.50
2018-09-27T16:25:56.860Z,58.50
2018-09-27T16:28:34.013Z,58.50
2018-09-27T16:31:02.677Z,58.70
2018-09-27T16:33:31.326Z,58.70
2018-09-27T16:36:00.019Z,58.80
2018-09-27T16:38:28.821Z,58.80
2018-09-27T16:40:57.576Z,58.90
2018-09-27T16:43:26.389Z,58.90
2018-09-27T16:45:54.989Z,59.00
2018-09-27T16:51:14.500Z,59.20
2018-09-27T16:53:43.239Z,59.10
2018-09-27T16:56:11.918Z,59.20
2018-09-27T17:01:31.066Z,59.20
2018-09-27T17:03:59.913Z,59.30
2018-09-27T17:06:28.539Z,59.50
2018-09-27T17:08:57.272Z,59.50
2018-09-27T17:11:25.942Z,59.60
2018-09-27T17:14:01.944Z,59.60
2018-09-27T17:16:30.425Z,59.60
2018-09-27T17:18:58.931Z,59.60
2018-09-27T17:21:27.477Z,59.70
2018-09-27T17:23:56.047Z,59.80
2018-09-27T17:26:24.720Z,59.90
2018-09-27T17:28:55.115Z,59.90
2018-09-27T17:31:24.474Z,60.00
2018-09-27T17:33:52.937Z,60.00
2018-09-27T17:36:21.377Z,60.10
2018-09-27T17:38:50.119Z,60.20
2018-09-27T17:41:18.542Z,60.40
2018-09-27T17:43:46.975Z,60.50
2018-09-27T17:46:15.328Z,60.50
2018-09-27T17:54:28.622Z,61.00
2018-09-27T17:56:56.934Z,61.10
2018-09-27T17:59:25.424Z,61.20
2018-09-27T18:01:53.745Z,61.20
2018-09-27T18:04:22.049Z,61.30
2018-09-27T18:06:50.453Z,61.40
2018-09-27T18:09:18.882Z,61.40
2018-09-27T18:11:48.530Z,61.60
2018-09-27T18:14:16.995Z,61.70
2018-09-27T18:16:45.395Z,61.80
2018-09-27T18:19:13.805Z,61.90
2018-09-27T18:21:42.341Z,62.00
2018-09-27T18:24:10.789Z,62.00
2018-09-27T18:26:39.452Z,62.10
2018-09-27T18:29:08.058Z,62.20
2018-09-27T18:31:36.628Z,62.30
2018-09-27T18:34:05.092Z,62.30
2018-09-27T18:36:33.506Z,62.40
2018-09-27T18:39:02.006Z,62.50
2018-09-27T18:41:30.533Z,62.60
2018-09-27T18:44:01.463Z,62.60
2018-09-27T18:46:30.038Z,62.70
2018-09-27T18:48:58.523Z,62.80
2018-09-27T18:51:27.387Z,62.80
2018-09-27T18:53:55.882Z,62.90
2018-09-27T18:56:35.822Z,63.00
2018-09-27T18:59:04.221Z,63.00
2018-09-27T19:01:32.713Z,63.20
2018-09-27T19:04:01.131Z,63.20
2018-09-27T19:06:29.564Z,63.10
2018-09-27T19:08:57.938Z,63.20
2018-09-27T19:11:26.286Z,63.20
2018-09-27T19:13:54.816Z,63.40
2018-09-27T19:16:23.302Z,63.40
2018-09-27T19:18:51.881Z,63.50
2018-09-27T19:21:20.639Z,63.60
2018-09-27T19:23:49.205Z,63.70
2018-09-27T19:26:17.499Z,63.70
2018-09-27T19:28:45.847Z,63.80
2018-09-27T19:31:14.212Z,63.90
2018-09-27T19:33:42.603Z,64.00
2018-09-27T19:36:12.005Z,64.20
2018-09-27T19:38:40.340Z,64.20
2018-09-27T19:41:08.868Z,64.30
2018-09-27T19:43:39.826Z,64.40
2018-09-27T19:46:08.189Z,64.50
2018-09-27T19:48:36.696Z,65.30
2018-09-27T19:51:05.315Z,64.70
2018-09-27T19:53:35.300Z,64.70
2018-09-27T19:56:03.908Z,64.70
2018-09-27T19:58:32.488Z,64.70
2018-09-27T20:01:01.036Z,64.80
2018-09-27T20:03:30.089Z,64.80
2018-09-27T20:05:58.654Z,65.60
2018-09-27T20:11:32.853Z,64.90
2018-09-27T20:14:01.409Z,65.00
2018-09-27T20:16:29.884Z,65.00
2018-09-27T20:18:58.262Z,65.10
2018-09-27T20:21:33.129Z,65.20
2018-09-27T20:24:01.687Z,65.30
2018-09-27T20:26:30.209Z,65.30
2018-09-27T20:28:58.744Z,65.40
2018-09-27T20:31:28.396Z,65.40
2018-09-27T20:33:56.728Z,65.60
2018-09-27T20:36:25.146Z,65.50
2018-09-27T20:38:54.807Z,65.60
2018-09-27T20:41:23.090Z,65.70
2018-09-27T20:44:06.967Z,65.70
2018-09-27T20:46:35.492Z,65.80
2018-09-27T20:49:05.775Z,65.70
2018-09-27T20:51:35.278Z,65.80
2018-09-27T20:54:12.401Z,66.20
2018-09-27T20:56:45.547Z,65.80
2018-09-27T20:59:13.881Z,65.90
2018-09-27T21:01:45.497Z,66.00
2018-09-27T21:04:13.808Z,66.00
2018-09-27T21:06:42.142Z,66.60
2018-09-27T21:09:12.154Z,66.00
2018-09-27T21:11:40.854Z,66.10
2018-09-27T21:14:13.246Z,66.10
2018-09-27T21:16:41.705Z,66.20
2018-09-27T21:19:10.082Z,66.10
2018-09-27T21:21:38.405Z,66.20
2018-09-27T21:24:06.809Z,66.80
2018-09-27T21:26:35.236Z,66.30
2018-09-27T21:29:03.486Z,66.30
2018-09-27T21:31:31.953Z,66.30
2018-09-27T21:34:00.265Z,66.40
2018-09-27T21:36:28.649Z,66.50
2018-09-27T21:38:56.886Z,66.50
2018-09-27T21:41:25.732Z,66.60
2018-09-27T21:43:54.390Z,66.60
2018-09-27T21:46:22.946Z,66.60
2018-09-27T21:48:51.375Z,66.70
2018-09-27T21:51:19.649Z,66.70
2018-09-27T21:53:48.187Z,66.80
2018-09-27T21:56:25.340Z,66.80
2018-09-27T21:58:59.988Z,67.00
2018-09-27T22:01:28.265Z,67.00
2018-09-27T22:03:56.618Z,67.10
2018-09-27T22:06:24.909Z,67.20
2018-09-27T22:08:53.902Z,67.30
2018-09-27T22:11:37.746Z,67.30
2018-09-27T22:14:06.302Z,67.40
2018-09-27T22:16:34.603Z,67.40
2018-09-27T22:19:02.948Z,67.50
2018-09-27T22:21:31.310Z,67.50
2018-09-27T22:24:09.325Z,67.50
2018-09-27T22:26:37.593Z,67.40
2018-09-27T22:29:05.919Z,67.50
2018-09-27T22:31:34.148Z,67.60
2018-09-27T22:34:02.378Z,67.70
2018-09-27T22:36:30.778Z,67.70
2018-09-27T22:38:59.038Z,67.80
2018-09-27T22:41:27.358Z,67.80
2018-09-27T22:43:55.705Z,67.80
2018-09-27T22:46:24.104Z,67.80
2018-09-27T22:48:53.468Z,67.90
2018-09-27T22:51:21.894Z,68.10
2018-09-27T22:53:50.529Z,68.10
2018-09-27T22:56:18.787Z,68.20
2018-09-27T22:58:47.095Z,68.20
2018-09-27T23:01:15.382Z,68.20
2018-09-27T23:03:43.645Z,68.20
2018-09-27T23:06:11.914Z,68.30
2018-09-27T23:08:40.351Z,68.50
2018-09-27T23:11:08.585Z,69.60
2018-09-27T23:13:36.786Z,69.70
2018-09-27T23:16:05.093Z,69.60
2018-09-27T23:18:33.377Z,69.70
2018-09-27T23:21:01.603Z,69.90
2018-09-27T23:23:29.922Z,69.80
2018-09-27T23:25:58.272Z,69.90
2018-09-27T23:28:26.556Z,69.80
2018-09-27T23:30:54.816Z,69.90
2018-09-27T23:33:23.098Z,69.90
2018-09-27T23:35:51.299Z,70.00
2018-09-27T23:38:25.741Z,70.20
2018-09-27T23:40:53.987Z,70.20
2018-09-27T23:43:22.234Z,70.20
2018-09-27T23:45:50.553Z,70.20
2018-09-27T23:48:18.846Z,70.30
2018-09-27T23:50:47.052Z,70.50
2018-09-27T23:53:15.345Z,70.70
2018-09-27T23:55:43.781Z,70.40
2018-09-27T23:58:12.100Z,70.50
